sensor_id;sensor_type;location;lat;lon;timestamp;P1;durP1;ratioP1;P2;durP2;ratioP2
74995;SDS011;63545;51.690;5.202;2024-01-15T00:00:11;6.77;;;2.30;;
74995;SDS011;63545;51.690;5.202;2024-01-15T00:02:37;5.00;;;1.65;;
74995;SDS011;63545;51.690;5.202;2024-01-15T00:05:03;9.50;;;2.20;;
74995;SDS011;63545;51.690;5.202;2024-01-15T00:07:29;8.68;;;1.83;;
74995;SDS011;63545;51.690;5.202;2024-01-15T00:09:54;7.37;;;2.17;;
74995;SDS011;63545;51.690;5.202;2024-01-15T00:12:19;10.77;;;2.10;;
74995;SDS011;63545;51.690;5.202;2024-01-15T00:14:45;8.67;;;2.40;;
74995;SDS011;63545;51.690;5.202;2024-01-15T00:17:10;8.63;;;2.40;;
74995;SDS011;63545;51.690;5.202;2024-01-15T00:19:35;8.33;;;2.60;;
74995;SDS011;63545;51.690;5.202;2024-01-15T00:22:01;7.85;;;2.30;;
74995;SDS011;63545;51.690;5.202;2024-01-15T00:24:26;9.43;;;2.53;;
74995;SDS011;63545;51.690;5.202;2024-01-15T00:26:51;12.57;;;2.80;;
74995;SDS011;63545;51.690;5.202;2024-01-15T00:29:18;6.50;;;2.85;;
74995;SDS011;63545;51.690;5.202;2024-01-15T00:31:43;9.20;;;3.30;;
74995;SDS011;63545;51.690;5.202;2024-01-15T00:34:09;7.93;;;2.90;;
74995;SDS011;63545;51.690;5.202;2024-01-15T00:36:34;8.47;;;2.77;;
74995;SDS011;63545;51.690;5.202;2024-01-15T00:38:59;8.10;;;2.73;;
74995;SDS011;63545;51.690;5.202;2024-01-15T00:41:25;7.73;;;2.70;;
74995;SDS011;63545;51.690;5.202;2024-01-15T00:43:52;8.13;;;2.50;;
74995;SDS011;63545;51.690;5.202;2024-01-15T00:46:18;10.07;;;2.30;;
74995;SDS011;63545;51.690;5.202;2024-01-15T00:48:43;11.27;;;2.17;;
74995;SDS011;63545;51.690;5.202;2024-01-15T00:51:08;13.60;;;1.77;;
74995;SDS011;63545;51.690;5.202;2024-01-15T00:53:33;12.10;;;2.05;;
74995;SDS011;63545;51.690;5.202;2024-01-15T00:55:59;8.18;;;1.77;;
74995;SDS011;63545;51.690;5.202;2024-01-15T00:58:25;6.23;;;2.13;;
74995;SDS011;63545;51.690;5.202;2024-01-15T01:00:50;14.15;;;2.45;;
74995;SDS011;63545;51.690;5.202;2024-01-15T01:03:16;8.77;;;2.10;;
74995;SDS011;63545;51.690;5.202;2024-01-15T01:05:41;11.80;;;2.10;;
74995;SDS011;63545;51.690;5.202;2024-01-15T01:08:07;10.13;;;2.40;;
74995;SDS011;63545;51.690;5.202;2024-01-15T01:10:32;13.97;;;2.30;;
74995;SDS011;63545;51.690;5.202;2024-01-15T01:12:57;9.65;;;2.05;;
74995;SDS011;63545;51.690;5.202;2024-01-15T01:15:23;9.73;;;2.20;;
74995;SDS011;63545;51.690;5.202;2024-01-15T01:17:49;11.00;;;2.50;;
74995;SDS011;63545;51.690;5.202;2024-01-15T01:20:15;16.53;;;2.60;;
74995;SDS011;63545;51.690;5.202;2024-01-15T01:22:40;9.23;;;2.40;;
74995;SDS011;63545;51.690;5.202;2024-01-15T01:25:06;11.32;;;2.47;;
74995;SDS011;63545;51.690;5.202;2024-01-15T01:27:32;19.90;;;2.57;;
74995;SDS011;63545;51.690;5.202;2024-01-15T01:29:57;11.10;;;2.80;;
74995;SDS011;63545;51.690;5.202;2024-01-15T01:32:22;13.95;;;2.42;;
74995;SDS011;63545;51.690;5.202;2024-01-15T01:34:48;10.63;;;2.60;;
74995;SDS011;63545;51.690;5.202;2024-01-15T01:37:13;13.87;;;2.07;;
74995;SDS011;63545;51.690;5.202;2024-01-15T01:39:39;6.95;;;2.05;;
74995;SDS011;63545;51.690;5.202;2024-01-15T01:42:05;8.50;;;1.92;;
74995;SDS011;63545;51.690;5.202;2024-01-15T01:44:30;8.70;;;2.07;;
74995;SDS011;63545;51.690;5.202;2024-01-15T01:46:56;14.33;;;2.03;;
74995;SDS011;63545;51.690;5.202;2024-01-15T01:49:22;8.57;;;1.83;;
74995;SDS011;63545;51.690;5.202;2024-01-15T01:51:48;13.95;;;2.40;;
74995;SDS011;63545;51.690;5.202;2024-01-15T01:54:13;10.80;;;2.40;;
74995;SDS011;63545;51.690;5.202;2024-01-15T01:56:40;12.00;;;2.47;;
74995;SDS011;63545;51.690;5.202;2024-01-15T01:59:06;8.90;;;1.77;;
74995;SDS011;63545;51.690;5.202;2024-01-15T02:01:33;11.27;;;1.90;;
74995;SDS011;63545;51.690;5.202;2024-01-15T02:03:58;11.47;;;2.47;;
74995;SDS011;63545;51.690;5.202;2024-01-15T02:06:24;10.20;;;1.95;;
74995;SDS011;63545;51.690;5.202;2024-01-15T02:08:49;6.73;;;1.80;;
74995;SDS011;63545;51.690;5.202;2024-01-15T02:11:15;7.43;;;1.80;;
74995;SDS011;63545;51.690;5.202;2024-01-15T02:13:40;14.20;;;2.10;;
74995;SDS011;63545;51.690;5.202;2024-01-15T02:16:06;9.60;;;1.80;;
74995;SDS011;63545;51.690;5.202;2024-01-15T02:18:41;18.67;;;2.00;;
74995;SDS011;63545;51.690;5.202;2024-01-15T02:21:07;7.07;;;1.77;;
74995;SDS011;63545;51.690;5.202;2024-01-15T02:23:33;14.02;;;1.83;;
74995;SDS011;63545;51.690;5.202;2024-01-15T02:25:58;17.43;;;2.07;;
74995;SDS011;63545;51.690;5.202;2024-01-15T02:28:24;11.73;;;2.93;;
74995;SDS011;63545;51.690;5.202;2024-01-15T02:30:49;14.30;;;1.80;;
74995;SDS011;63545;51.690;5.202;2024-01-15T02:33:14;14.73;;;1.70;;
74995;SDS011;63545;51.690;5.202;2024-01-15T02:35:40;13.00;;;1.80;;
74995;SDS011;63545;51.690;5.202;2024-01-15T02:38:05;9.18;;;1.58;;
74995;SDS011;63545;51.690;5.202;2024-01-15T02:40:31;15.60;;;1.60;;
74995;SDS011;63545;51.690;5.202;2024-01-15T02:42:57;11.05;;;1.40;;
74995;SDS011;63545;51.690;5.202;2024-01-15T02:45:23;16.13;;;1.30;;
74995;SDS011;63545;51.690;5.202;2024-01-15T02:47:48;12.68;;;1.20;;
74995;SDS011;63545;51.690;5.202;2024-01-15T02:50:14;13.77;;;1.50;;
74995;SDS011;63545;51.690;5.202;2024-01-15T02:52:39;13.20;;;1.23;;
74995;SDS011;63545;51.690;5.202;2024-01-15T02:55:04;13.70;;;1.63;;
74995;SDS011;63545;51.690;5.202;2024-01-15T02:57:30;23.20;;;1.65;;
74995;SDS011;63545;51.690;5.202;2024-01-15T02:59:55;8.73;;;1.23;;
74995;SDS011;63545;51.690;5.202;2024-01-15T03:02:21;11.97;;;1.10;;
74995;SDS011;63545;51.690;5.202;2024-01-15T03:04:46;12.07;;;1.73;;
74995;SDS011;63545;51.690;5.202;2024-01-15T03:07:12;9.40;;;1.67;;
74995;SDS011;63545;51.690;5.202;2024-01-15T03:09:37;11.55;;;1.50;;
74995;SDS011;63545;51.690;5.202;2024-01-15T03:12:03;8.93;;;1.87;;
74995;SDS011;63545;51.690;5.202;2024-01-15T03:14:28;19.38;;;1.80;;
74995;SDS011;63545;51.690;5.202;2024-01-15T03:16:54;7.90;;;1.40;;
74995;SDS011;63545;51.690;5.202;2024-01-15T03:19:19;10.13;;;1.53;;
74995;SDS011;63545;51.690;5.202;2024-01-15T03:21:45;16.07;;;1.70;;
74995;SDS011;63545;51.690;5.202;2024-01-15T03:24:10;13.57;;;1.20;;
74995;SDS011;63545;51.690;5.202;2024-01-15T03:26:35;13.77;;;1.27;;
74995;SDS011;63545;51.690;5.202;2024-01-15T03:29:01;12.57;;;2.28;;
74995;SDS011;63545;51.690;5.202;2024-01-15T03:31:26;9.30;;;1.33;;
74995;SDS011;63545;51.690;5.202;2024-01-15T03:33:51;14.97;;;2.13;;
74995;SDS011;63545;51.690;5.202;2024-01-15T03:36:17;13.30;;;1.43;;
74995;SDS011;63545;51.690;5.202;2024-01-15T03:38:42;14.33;;;1.53;;
74995;SDS011;63545;51.690;5.202;2024-01-15T03:41:08;13.70;;;1.53;;
74995;SDS011;63545;51.690;5.202;2024-01-15T03:43:33;14.48;;;1.80;;
74995;SDS011;63545;51.690;5.202;2024-01-15T03:45:58;16.23;;;2.25;;
74995;SDS011;63545;51.690;5.202;2024-01-15T03:48:24;11.70;;;2.03;;
74995;SDS011;63545;51.690;5.202;2024-01-15T03:50:49;13.57;;;2.17;;
74995;SDS011;63545;51.690;5.202;2024-01-15T03:53:14;19.40;;;2.13;;
74995;SDS011;63545;51.690;5.202;2024-01-15T03:55:40;7.13;;;1.83;;
74995;SDS011;63545;51.690;5.202;2024-01-15T03:58:05;9.00;;;2.00;;
74995;SDS011;63545;51.690;5.202;2024-01-15T04:00:30;24.42;;;2.28;;
74995;SDS011;63545;51.690;5.202;2024-01-15T04:02:56;11.55;;;1.88;;
74995;SDS011;63545;51.690;5.202;2024-01-15T04:05:21;16.43;;;1.90;;
74995;SDS011;63545;51.690;5.202;2024-01-15T04:07:46;16.53;;;1.80;;
74995;SDS011;63545;51.690;5.202;2024-01-15T04:10:12;17.53;;;2.40;;
74995;SDS011;63545;51.690;5.202;2024-01-15T04:12:37;19.10;;;1.93;;
74995;SDS011;63545;51.690;5.202;2024-01-15T04:15:03;16.17;;;2.10;;
74995;SDS011;63545;51.690;5.202;2024-01-15T04:17:28;23.27;;;2.47;;
74995;SDS011;63545;51.690;5.202;2024-01-15T04:19:54;6.00;;;1.30;;
74995;SDS011;63545;51.690;5.202;2024-01-15T04:22:19;11.20;;;1.80;;
74995;SDS011;63545;51.690;5.202;2024-01-15T04:24:44;4.40;;;0.90;;
74995;SDS011;63545;51.690;5.202;2024-01-15T04:27:10;8.03;;;1.30;;
74995;SDS011;63545;51.690;5.202;2024-01-15T04:29:37;12.40;;;1.33;;
74995;SDS011;63545;51.690;5.202;2024-01-15T04:32:04;10.30;;;1.20;;
74995;SDS011;63545;51.690;5.202;2024-01-15T04:34:29;6.25;;;0.95;;
74995;SDS011;63545;51.690;5.202;2024-01-15T04:36:55;3.00;;;0.70;;
74995;SDS011;63545;51.690;5.202;2024-01-15T04:39:20;4.17;;;0.60;;
74995;SDS011;63545;51.690;5.202;2024-01-15T04:41:45;3.17;;;0.73;;
74995;SDS011;63545;51.690;5.202;2024-01-15T04:44:11;4.13;;;0.70;;
74995;SDS011;63545;51.690;5.202;2024-01-15T04:46:36;4.63;;;0.70;;
74995;SDS011;63545;51.690;5.202;2024-01-15T04:49:01;2.63;;;0.50;;
74995;SDS011;63545;51.690;5.202;2024-01-15T04:51:27;2.22;;;0.65;;
74995;SDS011;63545;51.690;5.202;2024-01-15T04:53:52;2.40;;;0.60;;
74995;SDS011;63545;51.690;5.202;2024-01-15T04:56:17;5.50;;;0.60;;
74995;SDS011;63545;51.690;5.202;2024-01-15T04:58:43;2.50;;;0.60;;
74995;SDS011;63545;51.690;5.202;2024-01-15T05:01:08;7.67;;;0.80;;
74995;SDS011;63545;51.690;5.202;2024-01-15T05:03:34;1.00;;;0.60;;
74995;SDS011;63545;51.690;5.202;2024-01-15T05:05:59;2.93;;;0.80;;
74995;SDS011;63545;51.690;5.202;2024-01-15T05:08:25;6.00;;;0.80;;
74995;SDS011;63545;51.690;5.202;2024-01-15T05:10:50;5.07;;;0.90;;
74995;SDS011;63545;51.690;5.202;2024-01-15T05:13:15;4.77;;;0.90;;
74995;SDS011;63545;51.690;5.202;2024-01-15T05:15:40;6.03;;;1.07;;
74995;SDS011;63545;51.690;5.202;2024-01-15T05:18:06;4.13;;;0.80;;
74995;SDS011;63545;51.690;5.202;2024-01-15T05:20:31;5.43;;;1.07;;
74995;SDS011;63545;51.690;5.202;2024-01-15T05:22:56;9.95;;;1.00;;
74995;SDS011;63545;51.690;5.202;2024-01-15T05:25:22;6.43;;;0.90;;
74995;SDS011;63545;51.690;5.202;2024-01-15T05:27:47;5.87;;;1.07;;
74995;SDS011;63545;51.690;5.202;2024-01-15T05:30:13;5.80;;;1.20;;
74995;SDS011;63545;51.690;5.202;2024-01-15T05:32:38;2.53;;;1.30;;
74995;SDS011;63545;51.690;5.202;2024-01-15T05:35:04;5.60;;;1.10;;
74995;SDS011;63545;51.690;5.202;2024-01-15T05:37:30;2.20;;;0.83;;
74995;SDS011;63545;51.690;5.202;2024-01-15T05:39:55;3.55;;;1.10;;
74995;SDS011;63545;51.690;5.202;2024-01-15T05:42:21;9.33;;;1.47;;
74995;SDS011;63545;51.690;5.202;2024-01-15T05:44:46;10.43;;;1.30;;
74995;SDS011;63545;51.690;5.202;2024-01-15T05:47:11;4.27;;;1.60;;
74995;SDS011;63545;51.690;5.202;2024-01-15T05:49:37;3.70;;;1.52;;
74995;SDS011;63545;51.690;5.202;2024-01-15T05:52:02;11.60;;;2.00;;
74995;SDS011;63545;51.690;5.202;2024-01-15T05:54:28;4.70;;;1.33;;
74995;SDS011;63545;51.690;5.202;2024-01-15T05:56:54;2.58;;;1.85;;
74995;SDS011;63545;51.690;5.202;2024-01-15T05:59:19;2.53;;;1.70;;
74995;SDS011;63545;51.690;5.202;2024-01-15T06:01:44;4.23;;;1.87;;
74995;SDS011;63545;51.690;5.202;2024-01-15T06:04:10;3.13;;;1.70;;
74995;SDS011;63545;51.690;5.202;2024-01-15T06:06:35;5.87;;;2.40;;
74995;SDS011;63545;51.690;5.202;2024-01-15T06:09:00;8.53;;;2.60;;
74995;SDS011;63545;51.690;5.202;2024-01-15T06:11:30;8.77;;;3.17;;
74995;SDS011;63545;51.690;5.202;2024-01-15T06:13:56;7.07;;;3.35;;
74995;SDS011;63545;51.690;5.202;2024-01-15T06:16:21;5.17;;;3.30;;
74995;SDS011;63545;51.690;5.202;2024-01-15T06:18:48;8.38;;;3.33;;
74995;SDS011;63545;51.690;5.202;2024-01-15T06:21:14;11.37;;;3.90;;
74995;SDS011;63545;51.690;5.202;2024-01-15T06:23:39;9.87;;;2.80;;
74995;SDS011;63545;51.690;5.202;2024-01-15T06:26:05;8.88;;;3.78;;
74995;SDS011;63545;51.690;5.202;2024-01-15T06:28:30;13.87;;;5.17;;
74995;SDS011;63545;51.690;5.202;2024-01-15T06:30:56;10.17;;;4.10;;
74995;SDS011;63545;51.690;5.202;2024-01-15T06:33:22;14.02;;;5.85;;
74995;SDS011;63545;51.690;5.202;2024-01-15T06:35:47;17.50;;;6.40;;
74995;SDS011;63545;51.690;5.202;2024-01-15T06:38:13;10.43;;;4.40;;
74995;SDS011;63545;51.690;5.202;2024-01-15T06:40:38;19.20;;;5.83;;
74995;SDS011;63545;51.690;5.202;2024-01-15T06:43:06;22.38;;;4.45;;
74995;SDS011;63545;51.690;5.202;2024-01-15T06:45:31;15.50;;;4.90;;
74995;SDS011;63545;51.690;5.202;2024-01-15T06:47:57;8.57;;;4.50;;
74995;SDS011;63545;51.690;5.202;2024-01-15T06:50:22;8.75;;;4.22;;
74995;SDS011;63545;51.690;5.202;2024-01-15T06:52:48;9.25;;;3.05;;
74995;SDS011;63545;51.690;5.202;2024-01-15T06:55:14;16.63;;;3.80;;
74995;SDS011;63545;51.690;5.202;2024-01-15T06:57:39;8.32;;;3.50;;
74995;SDS011;63545;51.690;5.202;2024-01-15T07:00:05;7.97;;;3.23;;
74995;SDS011;63545;51.690;5.202;2024-01-15T07:02:33;7.10;;;3.30;;
74995;SDS011;63545;51.690;5.202;2024-01-15T07:04:58;9.20;;;3.40;;
74995;SDS011;63545;51.690;5.202;2024-01-15T07:07:23;8.33;;;3.40;;
74995;SDS011;63545;51.690;5.202;2024-01-15T07:09:49;6.87;;;3.30;;
74995;SDS011;63545;51.690;5.202;2024-01-15T07:12:17;9.02;;;3.58;;
74995;SDS011;63545;51.690;5.202;2024-01-15T07:14:42;6.90;;;3.50;;
74995;SDS011;63545;51.690;5.202;2024-01-15T07:17:08;9.43;;;3.70;;
74995;SDS011;63545;51.690;5.202;2024-01-15T07:19:33;9.27;;;3.92;;
74995;SDS011;63545;51.690;5.202;2024-01-15T07:21:58;9.23;;;3.00;;
74995;SDS011;63545;51.690;5.202;2024-01-15T07:24:24;5.40;;;2.97;;
74995;SDS011;63545;51.690;5.202;2024-01-15T07:26:49;6.33;;;3.80;;
74995;SDS011;63545;51.690;5.202;2024-01-15T07:29:14;6.87;;;3.30;;
74995;SDS011;63545;51.690;5.202;2024-01-15T07:31:39;5.57;;;2.50;;
74995;SDS011;63545;51.690;5.202;2024-01-15T07:34:05;6.13;;;3.57;;
74995;SDS011;63545;51.690;5.202;2024-01-15T07:36:30;4.37;;;2.27;;
74995;SDS011;63545;51.690;5.202;2024-01-15T07:38:56;6.25;;;2.70;;
74995;SDS011;63545;51.690;5.202;2024-01-15T07:41:21;6.13;;;2.93;;
74995;SDS011;63545;51.690;5.202;2024-01-15T07:43:48;5.03;;;1.98;;
74995;SDS011;63545;51.690;5.202;2024-01-15T07:46:13;6.07;;;3.50;;
74995;SDS011;63545;51.690;5.202;2024-01-15T07:48:39;3.83;;;2.97;;
74995;SDS011;63545;51.690;5.202;2024-01-15T07:51:04;9.60;;;3.70;;
74995;SDS011;63545;51.690;5.202;2024-01-15T07:53:29;5.55;;;2.60;;
74995;SDS011;63545;51.690;5.202;2024-01-15T07:55:55;6.25;;;2.90;;
74995;SDS011;63545;51.690;5.202;2024-01-15T07:58:20;2.83;;;2.00;;
74995;SDS011;63545;51.690;5.202;2024-01-15T08:00:45;5.50;;;2.90;;
74995;SDS011;63545;51.690;5.202;2024-01-15T08:03:11;8.07;;;4.17;;
74995;SDS011;63545;51.690;5.202;2024-01-15T08:05:37;7.78;;;3.05;;
74995;SDS011;63545;51.690;5.202;2024-01-15T08:08:03;8.47;;;2.33;;
74995;SDS011;63545;51.690;5.202;2024-01-15T08:10:28;9.63;;;4.40;;
74995;SDS011;63545;51.690;5.202;2024-01-15T08:12:54;8.85;;;3.90;;
74995;SDS011;63545;51.690;5.202;2024-01-15T08:15:19;10.55;;;5.07;;
74995;SDS011;63545;51.690;5.202;2024-01-15T08:17:44;8.33;;;5.10;;
74995;SDS011;63545;51.690;5.202;2024-01-15T08:20:10;8.97;;;4.00;;
74995;SDS011;63545;51.690;5.202;2024-01-15T08:22:35;13.33;;;6.13;;
74995;SDS011;63545;51.690;5.202;2024-01-15T08:25:01;9.93;;;4.97;;
74995;SDS011;63545;51.690;5.202;2024-01-15T08:27:26;14.07;;;6.80;;
74995;SDS011;63545;51.690;5.202;2024-01-15T08:29:51;11.05;;;6.18;;
74995;SDS011;63545;51.690;5.202;2024-01-15T08:32:17;12.03;;;6.47;;
74995;SDS011;63545;51.690;5.202;2024-01-15T08:34:42;11.10;;;6.87;;
74995;SDS011;63545;51.690;5.202;2024-01-15T08:37:08;14.60;;;7.17;;
74995;SDS011;63545;51.690;5.202;2024-01-15T08:39:33;13.73;;;6.90;;
74995;SDS011;63545;51.690;5.202;2024-01-15T08:41:58;13.13;;;5.75;;
74995;SDS011;63545;51.690;5.202;2024-01-15T08:44:24;13.80;;;7.40;;
74995;SDS011;63545;51.690;5.202;2024-01-15T08:46:49;11.07;;;6.00;;
74995;SDS011;63545;51.690;5.202;2024-01-15T08:49:14;11.47;;;5.67;;
74995;SDS011;63545;51.690;5.202;2024-01-15T08:51:40;7.13;;;3.50;;
74995;SDS011;63545;51.690;5.202;2024-01-15T08:54:05;8.73;;;4.23;;
74995;SDS011;63545;51.690;5.202;2024-01-15T08:56:30;12.83;;;4.43;;
74995;SDS011;63545;51.690;5.202;2024-01-15T08:58:56;18.40;;;4.40;;
74995;SDS011;63545;51.690;5.202;2024-01-15T09:01:21;13.60;;;3.83;;
74995;SDS011;63545;51.690;5.202;2024-01-15T09:03:48;6.43;;;3.20;;
74995;SDS011;63545;51.690;5.202;2024-01-15T09:06:13;8.70;;;2.58;;
74995;SDS011;63545;51.690;5.202;2024-01-15T09:08:38;5.67;;;2.40;;
74995;SDS011;63545;51.690;5.202;2024-01-15T09:11:04;10.03;;;2.83;;
74995;SDS011;63545;51.690;5.202;2024-01-15T09:13:29;13.63;;;2.30;;
74995;SDS011;63545;51.690;5.202;2024-01-15T09:15:55;10.23;;;2.10;;
74995;SDS011;63545;51.690;5.202;2024-01-15T09:18:21;9.20;;;1.67;;
74995;SDS011;63545;51.690;5.202;2024-01-15T09:20:46;11.50;;;1.77;;
74995;SDS011;63545;51.690;5.202;2024-01-15T09:23:11;16.13;;;1.60;;
74995;SDS011;63545;51.690;5.202;2024-01-15T09:25:37;7.97;;;1.70;;
74995;SDS011;63545;51.690;5.202;2024-01-15T09:28:02;15.63;;;1.80;;
74995;SDS011;63545;51.690;5.202;2024-01-15T09:30:27;8.97;;;1.50;;
74995;SDS011;63545;51.690;5.202;2024-01-15T09:32:53;12.73;;;1.53;;
74995;SDS011;63545;51.690;5.202;2024-01-15T09:35:18;6.23;;;1.90;;
74995;SDS011;63545;51.690;5.202;2024-01-15T09:37:43;10.47;;;1.63;;
74995;SDS011;63545;51.690;5.202;2024-01-15T09:40:09;11.80;;;1.70;;
74995;SDS011;63545;51.690;5.202;2024-01-15T09:42:38;15.27;;;1.85;;
74995;SDS011;63545;51.690;5.202;2024-01-15T09:45:04;10.87;;;1.20;;
74995;SDS011;63545;51.690;5.202;2024-01-15T09:47:30;11.73;;;1.60;;
74995;SDS011;63545;51.690;5.202;2024-01-15T09:49:55;7.10;;;1.53;;
74995;SDS011;63545;51.690;5.202;2024-01-15T09:52:23;7.85;;;1.75;;
74995;SDS011;63545;51.690;5.202;2024-01-15T09:54:48;15.30;;;1.70;;
74995;SDS011;63545;51.690;5.202;2024-01-15T09:57:14;8.95;;;2.03;;
74995;SDS011;63545;51.690;5.202;2024-01-15T09:59:40;10.35;;;1.63;;
74995;SDS011;63545;51.690;5.202;2024-01-15T10:02:07;9.95;;;1.65;;
74995;SDS011;63545;51.690;5.202;2024-01-15T10:04:33;12.25;;;1.70;;
74995;SDS011;63545;51.690;5.202;2024-01-15T10:06:58;7.53;;;1.90;;
74995;SDS011;63545;51.690;5.202;2024-01-15T10:09:26;6.70;;;1.48;;
74995;SDS011;63545;51.690;5.202;2024-01-15T10:11:52;4.75;;;1.05;;
74995;SDS011;63545;51.690;5.202;2024-01-15T10:14:17;12.93;;;1.43;;
74995;SDS011;63545;51.690;5.202;2024-01-15T10:16:43;9.20;;;1.23;;
74995;SDS011;63545;51.690;5.202;2024-01-15T10:19:08;8.23;;;1.00;;
74995;SDS011;63545;51.690;5.202;2024-01-15T10:21:34;6.43;;;1.08;;
74995;SDS011;63545;51.690;5.202;2024-01-15T10:24:00;2.47;;;0.90;;
74995;SDS011;63545;51.690;5.202;2024-01-15T10:26:25;4.40;;;1.17;;
74995;SDS011;63545;51.690;5.202;2024-01-15T10:28:51;5.37;;;1.20;;
74995;SDS011;63545;51.690;5.202;2024-01-15T10:31:17;11.75;;;1.90;;
74995;SDS011;63545;51.690;5.202;2024-01-15T10:33:44;9.95;;;2.00;;
74995;SDS011;63545;51.690;5.202;2024-01-15T10:36:09;6.77;;;2.23;;
74995;SDS011;63545;51.690;5.202;2024-01-15T10:38:36;8.07;;;2.95;;
74995;SDS011;63545;51.690;5.202;2024-01-15T10:41:01;5.77;;;2.67;;
74995;SDS011;63545;51.690;5.202;2024-01-15T10:43:27;10.40;;;3.33;;
74995;SDS011;63545;51.690;5.202;2024-01-15T10:45:52;7.60;;;3.60;;
74995;SDS011;63545;51.690;5.202;2024-01-15T10:48:18;9.18;;;3.05;;
74995;SDS011;63545;51.690;5.202;2024-01-15T10:50:44;14.23;;;4.50;;
74995;SDS011;63545;51.690;5.202;2024-01-15T10:53:11;17.02;;;4.40;;
74995;SDS011;63545;51.690;5.202;2024-01-15T10:55:38;13.23;;;4.00;;
74995;SDS011;63545;51.690;5.202;2024-01-15T10:58:04;14.15;;;4.05;;
74995;SDS011;63545;51.690;5.202;2024-01-15T11:00:30;13.60;;;3.90;;
74995;SDS011;63545;51.690;5.202;2024-01-15T11:02:55;13.47;;;3.33;;
74995;SDS011;63545;51.690;5.202;2024-01-15T11:05:21;11.30;;;2.72;;
74995;SDS011;63545;51.690;5.202;2024-01-15T11:07:50;21.30;;;2.80;;
74995;SDS011;63545;51.690;5.202;2024-01-15T11:13:09;7.03;;;1.30;;
74995;SDS011;63545;51.690;5.202;2024-01-15T11:15:57;8.43;;;1.60;;
74995;SDS011;63545;51.690;5.202;2024-01-15T11:18:25;5.93;;;1.20;;
74995;SDS011;63545;51.690;5.202;2024-01-15T11:23:41;4.75;;;1.30;;
74995;SDS011;63545;51.690;5.202;2024-01-15T11:29:05;2.83;;;1.00;;
74995;SDS011;63545;51.690;5.202;2024-01-15T11:34:06;1.95;;;1.00;;
74995;SDS011;63545;51.690;5.202;2024-01-15T11:42:03;5.45;;;1.98;;
74995;SDS011;63545;51.690;5.202;2024-01-15T11:44:29;6.07;;;2.97;;
74995;SDS011;63545;51.690;5.202;2024-01-15T11:47:04;8.20;;;3.13;;
74995;SDS011;63545;51.690;5.202;2024-01-15T11:49:37;4.67;;;3.00;;
74995;SDS011;63545;51.690;5.202;2024-01-15T11:52:37;7.72;;;3.58;;
74995;SDS011;63545;51.690;5.202;2024-01-15T11:57:42;9.73;;;2.58;;
74995;SDS011;63545;51.690;5.202;2024-01-15T12:00:10;6.43;;;2.55;;
74995;SDS011;63545;51.690;5.202;2024-01-15T12:02:40;8.47;;;2.60;;
74995;SDS011;63545;51.690;5.202;2024-01-15T12:05:09;7.45;;;2.03;;
74995;SDS011;63545;51.690;5.202;2024-01-15T12:07:37;6.35;;;1.90;;
74995;SDS011;63545;51.690;5.202;2024-01-15T12:10:03;6.53;;;2.40;;
74995;SDS011;63545;51.690;5.202;2024-01-15T12:12:46;5.80;;;2.72;;
74995;SDS011;63545;51.690;5.202;2024-01-15T12:15:15;13.50;;;2.83;;
74995;SDS011;63545;51.690;5.202;2024-01-15T12:17:41;10.23;;;2.60;;
74995;SDS011;63545;51.690;5.202;2024-01-15T12:20:06;7.85;;;2.70;;
74995;SDS011;63545;51.690;5.202;2024-01-15T12:22:32;6.83;;;2.50;;
74995;SDS011;63545;51.690;5.202;2024-01-15T12:24:58;5.95;;;3.00;;
74995;SDS011;63545;51.690;5.202;2024-01-15T12:27:24;7.13;;;3.83;;
74995;SDS011;63545;51.690;5.202;2024-01-15T12:29:49;14.57;;;6.68;;
74995;SDS011;63545;51.690;5.202;2024-01-15T12:32:15;8.47;;;2.50;;
74995;SDS011;63545;51.690;5.202;2024-01-15T12:34:40;3.57;;;2.07;;
74995;SDS011;63545;51.690;5.202;2024-01-15T12:37:06;7.80;;;2.80;;
74995;SDS011;63545;51.690;5.202;2024-01-15T12:39:33;3.28;;;2.65;;
74995;SDS011;63545;51.690;5.202;2024-01-15T12:42:00;9.30;;;4.10;;
74995;SDS011;63545;51.690;5.202;2024-01-15T12:44:26;6.15;;;2.25;;
74995;SDS011;63545;51.690;5.202;2024-01-15T12:46:52;8.37;;;2.73;;
74995;SDS011;63545;51.690;5.202;2024-01-15T12:49:17;9.50;;;3.57;;
74995;SDS011;63545;51.690;5.202;2024-01-15T12:51:42;13.33;;;3.77;;
74995;SDS011;63545;51.690;5.202;2024-01-15T12:54:08;7.80;;;3.80;;
74995;SDS011;63545;51.690;5.202;2024-01-15T12:56:33;7.97;;;4.10;;
74995;SDS011;63545;51.690;5.202;2024-01-15T12:58:59;9.55;;;3.92;;
74995;SDS011;63545;51.690;5.202;2024-01-15T13:01:25;8.93;;;4.10;;
74995;SDS011;63545;51.690;5.202;2024-01-15T13:03:50;5.33;;;3.50;;
74995;SDS011;63545;51.690;5.202;2024-01-15T13:06:16;2.90;;;2.45;;
74995;SDS011;63545;51.690;5.202;2024-01-15T13:08:41;7.80;;;3.30;;
74995;SDS011;63545;51.690;5.202;2024-01-15T13:11:06;5.73;;;2.90;;
74995;SDS011;63545;51.690;5.202;2024-01-15T13:13:32;2.23;;;1.60;;
74995;SDS011;63545;51.690;5.202;2024-01-15T13:15:59;12.82;;;2.63;;
74995;SDS011;63545;51.690;5.202;2024-01-15T13:18:25;6.22;;;2.60;;
74995;SDS011;63545;51.690;5.202;2024-01-15T13:20:50;9.23;;;2.23;;
74995;SDS011;63545;51.690;5.202;2024-01-15T13:23:16;6.37;;;1.83;;
74995;SDS011;63545;51.690;5.202;2024-01-15T13:25:41;9.03;;;2.77;;
74995;SDS011;63545;51.690;5.202;2024-01-15T13:28:07;5.72;;;1.60;;
74995;SDS011;63545;51.690;5.202;2024-01-15T13:30:33;4.82;;;1.65;;
74995;SDS011;63545;51.690;5.202;2024-01-15T13:32:58;6.63;;;1.70;;
74995;SDS011;63545;51.690;5.202;2024-01-15T13:35:28;11.43;;;2.00;;
74995;SDS011;63545;51.690;5.202;2024-01-15T13:37:54;9.30;;;2.00;;
74995;SDS011;63545;51.690;5.202;2024-01-15T13:40:19;9.87;;;1.80;;
74995;SDS011;63545;51.690;5.202;2024-01-15T13:42:45;9.97;;;2.30;;
74995;SDS011;63545;51.690;5.202;2024-01-15T13:45:11;9.20;;;1.92;;
74995;SDS011;63545;51.690;5.202;2024-01-15T13:47:39;14.88;;;1.65;;
74995;SDS011;63545;51.690;5.202;2024-01-15T13:50:06;6.35;;;1.80;;
74995;SDS011;63545;51.690;5.202;2024-01-15T13:52:32;13.30;;;1.75;;
74995;SDS011;63545;51.690;5.202;2024-01-15T13:54:57;11.70;;;1.90;;
74995;SDS011;63545;51.690;5.202;2024-01-15T13:57:22;8.68;;;1.67;;
74995;SDS011;63545;51.690;5.202;2024-01-15T13:59:48;8.18;;;2.03;;
74995;SDS011;63545;51.690;5.202;2024-01-15T14:02:14;14.53;;;2.20;;
74995;SDS011;63545;51.690;5.202;2024-01-15T14:04:39;11.02;;;2.08;;
74995;SDS011;63545;51.690;5.202;2024-01-15T14:07:06;7.70;;;1.65;;
74995;SDS011;63545;51.690;5.202;2024-01-15T14:09:31;12.40;;;2.50;;
74995;SDS011;63545;51.690;5.202;2024-01-15T14:11:57;12.53;;;2.30;;
74995;SDS011;63545;51.690;5.202;2024-01-15T14:14:22;13.23;;;2.35;;
74995;SDS011;63545;51.690;5.202;2024-01-15T14:16:48;7.80;;;2.17;;
74995;SDS011;63545;51.690;5.202;2024-01-15T14:19:14;16.17;;;2.80;;
74995;SDS011;63545;51.690;5.202;2024-01-15T14:21:40;17.27;;;2.50;;
74995;SDS011;63545;51.690;5.202;2024-01-15T14:24:05;12.40;;;2.30;;
74995;SDS011;63545;51.690;5.202;2024-01-15T14:26:31;11.63;;;2.37;;
74995;SDS011;63545;51.690;5.202;2024-01-15T14:28:56;8.37;;;2.30;;
74995;SDS011;63545;51.690;5.202;2024-01-15T14:31:23;6.55;;;2.25;;
74995;SDS011;63545;51.690;5.202;2024-01-15T14:33:51;8.20;;;2.28;;
74995;SDS011;63545;51.690;5.202;2024-01-15T14:36:17;9.18;;;2.50;;
74995;SDS011;63545;51.690;5.202;2024-01-15T14:38:42;12.13;;;2.53;;
74995;SDS011;63545;51.690;5.202;2024-01-15T14:41:07;14.73;;;3.47;;
74995;SDS011;63545;51.690;5.202;2024-01-15T14:43:32;10.07;;;2.30;;
74995;SDS011;63545;51.690;5.202;2024-01-15T14:45:58;7.47;;;1.60;;
74995;SDS011;63545;51.690;5.202;2024-01-15T14:48:23;6.90;;;2.00;;
74995;SDS011;63545;51.690;5.202;2024-01-15T14:50:50;7.25;;;1.38;;
74995;SDS011;63545;51.690;5.202;2024-01-15T14:53:15;8.73;;;1.58;;